首页
METAR-TAF:

METAR-TAF

机场 :

拉吉夫·甘地国际机场

海得拉巴, 印度

纬度: 17-14-00N, 经度: 078-26-00E, 海拔: 617米

当前天气观测

该预报发布于1小时和18分钟前的23:00 UTC
风速8节,风向西
温度 26°C
湿度 79%
气压 1009 hPa
能見度: 5000
散云层高于1500英尺
多云层高于10000英尺
轻雾,

METAR: VOHS 162300Z 26008KT 5000 BR SCT015 BKN100 26/22 Q1009 NOSIG

时间: 05:48 (00:18 UTC)

预报

该预报发布于1小时和18分钟前的23:00 UTC
预报有效从17日的 00点(UTC)到 18日的 06点(UTC)
风速10节,风向西
能見度: 5000
散云层高于1500英尺
多云层高于8000英尺
霾, 毛毛雨
短暂存在
从 17日的 00点(UTC)到 17日的 03点(UTC)
风速10节,风向西
能見度: 3000
散云层高于1000英尺
多云层高于8000英尺
毛毛雨, 轻雾
成为
从 17日的 04点(UTC)到 17日的 06点(UTC)
风速10节,风向西
能見度: 6000
散云层高于1500英尺
多云层高于8000英尺
短暂存在
从 17日的 10点(UTC)到 17日的 15点(UTC)
能見度: 5000
散云层高于1500英尺
散云层高于2500英尺
多云层高于8000英尺
毛毛雨, 雨
成为
从 17日的 16点(UTC)到 17日的 17点(UTC)
风速6节,风向西
能見度: 5000
散云层高于1500英尺
多云层高于8000英尺
小雨, 霾
短暂存在
从 17日的 23点(UTC)到 18日的 03点(UTC)
风速4节,风向多变
能見度: 3000
散云层高于1000英尺
散云层高于1500英尺
轻雾
成为
从 18日的 04点(UTC)到 18日的 06点(UTC)
风速10节,风向西
能見度: 6000
散云层高于1500英尺
散云层高于2500英尺

TAF: VOHS 162300Z 1700/1806 28010KT 5000 HZ DZ SCT015 BKN080 TEMPO 1700/1703 27010KT 3000 DZ BR SCT010 BKN080 BECMG 1704/1706 26010KT 6000 SCT015 BKN080 TEMPO 1710/1715 5000 DZ RA SCT015 SCT025 BKN080 BECMG 1716/1717 28006KT 5000 -RA HZ SCT015 BKN080 TEMPO 1723/1803 VRB04KT 3000 BR SCT010 SCT015 BECMG 1804/1806 28010KT 6000 SCT015 SCT025

超过4000个机场的气象观测和天气预报(METAR&TAF报告)。

可查询的气象台以黄色和红色小点在地图上表示。

将鼠标移到小点上方,可查看气象台名称。

然后点击查看天气观测和预报。

如需切换地图:点击带黑十字的绿色按钮放大地图;点击带横线的绿色按钮缩小地图;或者点击绿色箭头查看邻近地区的地图。


METAR-TAF: